windsock image

Welcome to Bigfield Strip.

anemometer image
     

 Help for dials.  
 
Local Met:

Wind:   
10 Min average:  
184 ° / 0.0 kts (0.0)
184° / 0.0

Temperature:  
14.2°C C
Dew Point:  
13.3°C C
QNH:  
Trend:  
1003.8 mb mb
-0.4mb/hr
BigField Strip. This image updates approximately every minute, it can have a two minute delay.  
 

Humidity:  
94 %
Sunrise:   04:27z
Sunset:   19:51z
Updated:  
  UTC
 
   More met info, trends, radar, history etc. available here   

LUTON Metar   EGGW 020220Z AUTO VRB02KT 9999 NCD 15/13 Q1005
 
  TAF   2014/08/01 18:15 TAF TAF EGGW 011659Z 0118/0218 20010KT 9999 SCT040 BECMG 0122/0201 VRB03KT TEMPO 0123/0207 7000 SHRA TEMPO 0203/0207 4000 +SHRA BKN010 BKN020CB TEMPO 0207/0212 BKN012 PROB30 TEMPO 0207/0216 7000 SHRA BECMG 0209/0212 18012KT
 
BENSON Metar   EGUB 020150Z AUTO 11004KT 8000 // OVC130/// 16/14 Q1005
 
  TAF   2014/08/01 15:03 TAF EGUB 011338Z 0115/0120 17010KT 9999 SCT040 PROB30 TEMPO 0115/0120 7000 SHRA SCT022
 
Big Field view 1 icon   Big Field view 2 icon   Big Field view 3 icon   Chart AL3a in PDF icon   Chart AL3a in Word icon

WARNING:
This information is provided by the Airstrip unofficial weather station, DO NOT depend on the data provided here for any purpose.
This page is updated for latest Metars & TAF's every 5 minutes. Refresh the browser to check for the lastest.
Page designed for a minimum browser size of 1024x768.
© Copyright 2014 BigField Strip. This page auto generated 02:46 UTC - 02/08/2014   Contact Us
Valid HTML 4.01 Transitional     Windows uptime: 5 Days 0 Hours 14 Minutes 1 Seconds    WD started: 02:38 28/07/14    Free memory: 1437MB     Valid CSS!